Tufão FANAPI 2010: trajetória, intensidade e histórico
21/09/2010, 18:00:00
13/09/2010, 06:00:00 – 21/09/2010, 18:00:00
Trajetória histórica
Acompanhe a evolução e o deslocamento de Tufão FANAPI em 2010, com a trajetória completa registrada, ventos máximos sustentados de 105 nós, pressão central mínima e cronologia detalhada.
| Data | Hora | Tipo | Ventokm/h | PressãohPa |
|---|---|---|---|---|
| 21/09 | 18:00 | TDDepressão tropical | 35 | 1002 |
| 21/09 | 15:00 | TDDepressão tropical | 35 | 1002 |
| 21/09 | 12:00 | TDDepressão tropical | 35 | 1004 |
| 21/09 | 09:00 | TDDepressão tropical | 35 | 1002 |
| 21/09 | 06:00 | TDDepressão tropical | 35 | 1002 |
| 21/09 | 03:00 | TDDepressão tropical | 40 | 1002 |
| 21/09 | 00:00 | TDDepressão tropical | 45 | 1002 |
| 20/09 | 21:00 | TDDepressão tropical | 50 | 1001 |
| 20/09 | 18:00 | TDDepressão tropical | 55 | 1000 |
| 20/09 | 15:00 | TSTempestade tropical | 65 | 997 |
| 20/09 | 12:00 | TSTempestade tropical | 75 | 993 |
| 20/09 | 09:00 | TSTempestade tropical | 85 | 989 |
| 20/09 | 06:00 | TSTempestade tropical | 95 | 985 |
| 20/09 | 03:00 | TTufão | 105 | 980 |
| 20/09 | 00:00 | STSTempestade tropical severa | 120 | 974 |
| 19/09 | 21:00 | TTufão | 125 | 972 |
| 19/09 | 18:00 | STSTempestade tropical severa | 130 | 970 |
| 19/09 | 15:00 | TTufão | 130 | 970 |
| 19/09 | 12:00 | STSTempestade tropical severa | 130 | 970 |
| 19/09 | 09:00 | TTufão | 135 | 969 |
| 19/09 | 06:00 | TTufão | 140 | 967 |
| 19/09 | 03:00 | TTufão | 165 | 956 |
| 19/09 | 00:00 | STSupertufão | 195 | 944 |
| 18/09 | 21:00 | STSupertufão | 195 | 944 |
| 18/09 | 18:00 | STSupertufão | 195 | 944 |
| 18/09 | 15:00 | STSupertufão | 195 | 944 |
| 18/09 | 12:00 | STSupertufão | 195 | 944 |
| 18/09 | 09:00 | STSupertufão | 195 | 944 |
| 18/09 | 06:00 | STSupertufão | 195 | 944 |
| 18/09 | 03:00 | STSupertufão | 190 | 946 |
| 18/09 | 00:00 | STSupertufão | 185 | 948 |
| 17/09 | 21:00 | TTufão | 175 | 952 |
| 17/09 | 18:00 | TTufão | 165 | 956 |
| 17/09 | 15:00 | TTufão | 165 | 958 |
| 17/09 | 12:00 | TTufão | 155 | 959 |
| 17/09 | 09:00 | TTufão | 155 | 961 |
| 17/09 | 06:00 | TTufão | 150 | 963 |
| 17/09 | 03:00 | TTufão | 145 | 965 |
| 17/09 | 00:00 | TTufão | 140 | 967 |
| 16/09 | 21:00 | TTufão | 135 | 969 |
| 16/09 | 18:00 | TTufão | 130 | 970 |
| 16/09 | 15:00 | TTufão | 125 | 972 |
| 16/09 | 12:00 | STSTempestade tropical severa | 120 | 974 |
| 16/09 | 09:00 | TSTempestade tropical | 115 | 976 |
| 16/09 | 06:00 | STSTempestade tropical severa | 110 | 978 |
| 16/09 | 03:00 | TSTempestade tropical | 105 | 980 |
| 16/09 | 00:00 | STSTempestade tropical severa | 100 | 982 |
| 15/09 | 21:00 | TSTempestade tropical | 95 | 986 |
| 15/09 | 18:00 | TSTempestade tropical | 85 | 989 |
| 15/09 | 15:00 | TSTempestade tropical | 80 | 991 |
| 15/09 | 12:00 | TSTempestade tropical | 75 | 993 |
| 15/09 | 09:00 | TSTempestade tropical | 70 | 995 |
| 15/09 | 06:00 | TDDepressão tropical | 65 | 996 |
| 15/09 | 03:00 | TSTempestade tropical | 65 | 996 |
| 15/09 | 00:00 | TDDepressão tropical | 65 | 996 |
| 14/09 | 21:00 | TDDepressão tropical | 60 | 998 |
| 14/09 | 18:00 | TDDepressão tropical | 55 | 1000 |
| 14/09 | 15:00 | TDDepressão tropical | 50 | 1002 |
| 14/09 | 12:00 | TDDepressão tropical | 45 | 1004 |
| 14/09 | 09:00 | DBPerturbação tropical | 45 | 1006 |
| 14/09 | 06:00 | DBPerturbação tropical | 35 | 1007 |
| 14/09 | 03:00 | DBPerturbação tropical | 35 | 1007 |
| 14/09 | 00:00 | DBPerturbação tropical | 35 | 1007 |
| 13/09 | 21:00 | DBPerturbação tropical | 35 | 1007 |
| 13/09 | 18:00 | DBPerturbação tropical | 35 | 1007 |
| 13/09 | 15:00 | DBPerturbação tropical | 35 | 1009 |
| 13/09 | 12:00 | DBPerturbação tropical | 30 | 1010 |
| 13/09 | 09:00 | DBPerturbação tropical | 30 | 1010 |
| 13/09 | 06:00 | DBPerturbação tropical | 30 | 1010 |
Cronologia de localização
69 Registos de localizaçãoTambém pode encontrar estas ferramentas úteis
A localização, a extensão e o estado de cada evento podem ser atualizados em momentos diferentes consoante a fonte. Confirme decisões importantes junto das autoridades oficiais de emergência.
Os registos de eventos provêm da NASA EONET e são complementados por registos de deslizamentos de terra do USGS FDSN. As análises e previsões de tempestades podem utilizar a NOAA NHC ou o JTWC, com registos históricos ATCF da UCAR/NCAR quando disponíveis. As imagens de satélite provêm da NASA Worldview/GIBS (GOES e Himawari) ou da EUMETSAT Meteosat, consoante a cobertura do mapa.
Fontes: NASA EONET · USGS · NOAA NHC · JTWC · UCAR/NCAR ATCF · NASA Worldview/GIBS · EUMETSAT Meteosat · OpenStreetMap contributors